Time;durP1;ratioP1;P1;durP2;ratioP2;P2;SDS_P1;SDS_P2;PMS_P1;PMS_P2;Temp;Humidity;BMP_temperature;BMP_pressure;BME280_temperature;BME280_humidity;BME280_pressure;Samples;Min_cycle;Max_cycle;Signal;HPM_P1;HPM_P2
2023/07/31 00:00:24;;;;;;;5.53;1.47;;;17.20;1.00;;;;;;5029754;28;20400;-71
2023/07/31 00:02:49;;;;;;;8.10;1.83;;;17.10;99.90;;;;;;5028535;28;20472;-71
2023/07/31 00:05:15;;;;;;;5.50;1.43;;;17.00;99.90;;;;;;5027327;28;20415;-71
2023/07/31 00:07:41;;;;;;;4.90;1.38;;;16.90;99.90;;;;;;5028687;28;20390;-71
2023/07/31 00:10:07;;;;;;;5.70;1.50;;;16.80;1.00;;;;;;5028538;28;20415;-71
2023/07/31 00:12:32;;;;;;;6.18;1.65;;;16.80;99.90;;;;;;5028893;28;20529;-70
2023/07/31 00:14:58;;;;;;;5.90;1.83;;;16.80;1.00;;;;;;5021003;28;20392;-70
2023/07/31 00:17:23;;;;;;;7.00;1.50;;;16.80;1.00;;;;;;5009573;28;20409;-71
2023/07/31 00:19:50;;;;;;;5.40;1.60;;;16.90;1.00;;;;;;5008807;28;20405;-71
2023/07/31 00:22:16;;;;;;;7.40;1.50;;;17.00;1.00;;;;;;5008804;28;20404;-71
2023/07/31 00:24:41;;;;;;;5.20;1.48;;;17.00;1.00;;;;;;5008847;28;20487;-70
2023/07/31 00:27:07;;;;;;;7.10;2.25;;;16.90;1.00;;;;;;5008928;28;20397;-70
2023/07/31 00:29:32;;;;;;;7.70;1.40;;;16.90;99.90;;;;;;5025848;28;20432;-71
2023/07/31 00:31:58;;;;;;;6.10;1.50;;;16.90;99.90;;;;;;5034915;28;20374;-71
2023/07/31 00:34:23;;;;;;;5.27;1.20;;;16.80;1.00;;;;;;5028641;28;20379;-71
2023/07/31 00:36:49;;;;;;;7.40;1.70;;;16.90;1.00;;;;;;5028541;28;20470;-71
2023/07/31 00:39:14;;;;;;;6.20;1.57;;;16.70;99.90;;;;;;5028475;28;20391;-71
2023/07/31 00:41:40;;;;;;;7.22;1.60;;;16.60;1.00;;;;;;5027978;28;20390;-71
2023/07/31 00:44:05;;;;;;;6.30;1.80;;;16.50;1.00;;;;;;5028347;28;20399;-71
2023/07/31 00:46:31;;;;;;;5.20;1.50;;;16.50;99.90;;;;;;5027794;28;20395;-71
2023/07/31 00:48:57;;;;;;;5.77;1.70;;;16.50;99.90;;;;;;5027296;28;20430;-71
2023/07/31 00:51:23;;;;;;;9.88;1.70;;;16.50;1.00;;;;;;5027756;28;20381;-71
2023/07/31 00:53:48;;;;;;;7.85;1.75;;;16.40;1.00;;;;;;5027752;28;21048;-70
2023/07/31 00:56:15;;;;;;;5.73;1.20;;;16.40;1.00;;;;;;5027891;28;20486;-70
2023/07/31 00:58:41;;;;;;;5.20;1.40;;;16.40;1.00;;;;;;5028038;28;20383;-69
2023/07/31 01:01:06;;;;;;;5.20;1.40;;;16.40;99.90;;;;;;5028197;28;20430;-70
2023/07/31 01:03:32;;;;;;;5.10;1.27;;;16.30;99.90;;;;;;5027702;28;20435;-70
2023/07/31 01:06:31;;;;;;;5.87;1.50;;;16.30;1.00;;;;;;5028400;28;20418;-70
2023/07/31 01:09:18;;;;;;;8.02;1.60;;;16.30;87.10;;;;;;5028992;28;20473;-70
2023/07/31 01:11:52;;;;;;;5.32;1.42;;;16.20;99.90;;;;;;5028458;28;20410;-70
2023/07/31 01:14:18;;;;;;;4.90;1.20;;;16.10;99.90;;;;;;5028286;28;20391;-70
2023/07/31 01:16:43;;;;;;;6.07;1.90;;;16.00;1.00;;;;;;5028031;28;20425;-70
2023/07/31 01:19:10;;;;;;;5.80;1.90;;;16.10;99.90;;;;;;5027931;28;20390;-70
2023/07/31 01:21:36;;;;;;;6.00;1.70;;;16.10;1.00;;;;;;5027072;28;20463;-70
2023/07/31 01:24:14;;;;;;;7.83;1.80;;;16.00;1.00;;;;;;5027676;28;20400;-70
2023/07/31 01:26:46;;;;;;;8.05;1.50;;;16.00;99.90;;;;;;5028078;28;20395;-70
2023/07/31 01:29:17;;;;;;;7.10;1.70;;;16.10;1.00;;;;;;5028311;28;20469;-70
2023/07/31 01:31:48;;;;;;;9.88;1.75;;;16.00;96.80;;;;;;5027836;28;20394;-70
2023/07/31 01:34:16;;;;;;;5.30;1.58;;;16.00;99.90;;;;;;5027624;28;20486;-70
2023/07/31 01:36:42;;;;;;;5.20;1.30;;;16.00;1.00;;;;;;5027916;28;20401;-70
2023/07/31 01:39:08;;;;;;;5.40;1.53;;;16.10;99.90;;;;;;5027960;28;20391;-70
2023/07/31 01:41:33;;;;;;;6.20;1.60;;;16.10;99.90;;;;;;5030055;28;20387;-70
2023/07/31 01:43:59;;;;;;;5.75;1.60;;;16.10;1.00;;;;;;5028595;28;20402;-70
2023/07/31 01:46:24;;;;;;;7.22;1.70;;;16.10;99.90;;;;;;5028659;28;20409;-70
2023/07/31 01:48:50;;;;;;;5.63;1.50;;;16.10;99.90;;;;;;5014337;28;20417;-70
2023/07/31 01:51:15;;;;;;;5.40;1.50;;;16.00;1.00;;;;;;5021489;28;20777;-71
2023/07/31 01:53:41;;;;;;;6.20;1.40;;;16.10;99.90;;;;;;5005941;28;20526;-70
2023/07/31 01:56:06;;;;;;;7.47;1.80;;;16.10;99.90;;;;;;5011364;28;20398;-70
2023/07/31 01:58:32;;;;;;;5.45;1.52;;;16.10;99.90;;;;;;5009382;28;20479;-70
2023/07/31 02:00:57;;;;;;;7.30;1.70;;;16.10;99.90;;;;;;5009647;28;20393;-70
2023/07/31 02:03:23;;;;;;;7.17;1.90;;;16.10;99.90;;;;;;4991919;28;20426;-70
2023/07/31 02:05:49;;;;;;;4.60;1.20;;;16.10;99.90;;;;;;5015249;28;20724;-70
2023/07/31 02:08:15;;;;;;;7.00;1.67;;;16.20;99.90;;;;;;5038505;28;20401;-70
2023/07/31 02:10:41;;;;;;;5.97;1.50;;;16.20;99.90;;;;;;5052998;28;20412;-70
2023/07/31 02:13:07;;;;;;;6.20;1.97;;;16.20;1.00;;;;;;5034370;28;21128;-70
2023/07/31 02:15:32;;;;;;;7.03;1.70;;;16.10;99.90;;;;;;5052977;28;20427;-69
2023/07/31 02:17:58;;;;;;;6.30;1.40;;;16.10;99.90;;;;;;5052763;28;20455;-70
2023/07/31 02:20:24;;;;;;;9.13;1.70;;;16.00;99.90;;;;;;5053205;28;20761;-71
2023/07/31 02:22:50;;;;;;;8.27;1.88;;;16.00;99.90;;;;;;5052310;28;20394;-70
2023/07/31 02:25:15;;;;;;;7.17;1.47;;;16.10;99.90;;;;;;5051499;28;20461;-70
2023/07/31 02:27:41;;;;;;;5.60;1.30;;;16.10;99.90;;;;;;5052365;28;20397;-70
2023/07/31 02:30:07;;;;;;;7.20;1.50;;;16.10;73.20;;;;;;5045330;28;20529;-70
2023/07/31 02:32:32;;;;;;;7.72;1.67;;;16.10;99.90;;;;;;5045098;28;20391;-70
2023/07/31 02:34:58;;;;;;;5.13;1.40;;;16.10;99.90;;;;;;5030801;28;20876;-70
2023/07/31 02:37:24;;;;;;;5.60;1.50;;;16.10;99.90;;;;;;5031321;28;20395;-70
2023/07/31 02:39:50;;;;;;;7.10;1.90;;;16.10;60.70;;;;;;5030629;28;20387;-70
2023/07/31 02:42:15;;;;;;;5.20;1.60;;;16.10;1.00;;;;;;5031286;28;20395;-70
2023/07/31 02:44:41;;;;;;;7.53;1.60;;;16.10;1.00;;;;;;5030868;28;20406;-70
2023/07/31 02:47:06;;;;;;;6.53;1.52;;;16.00;99.90;;;;;;5034609;28;20971;-70
2023/07/31 02:49:32;;;;;;;5.93;1.20;;;16.00;99.90;;;;;;5030509;28;20477;-70
2023/07/31 02:51:57;;;;;;;5.50;1.60;;;16.00;99.90;;;;;;5031055;28;20479;-70
2023/07/31 02:54:23;;;;;;;6.63;1.87;;;16.10;99.90;;;;;;5030508;28;20422;-70
2023/07/31 02:56:48;;;;;;;6.90;1.40;;;16.10;99.90;;;;;;5030641;28;20414;-70
2023/07/31 02:59:14;;;;;;;4.80;1.20;;;16.10;99.90;;;;;;5030021;28;20426;-70
2023/07/31 03:01:40;;;;;;;5.45;1.60;;;16.10;99.90;;;;;;5030803;28;20752;-70
2023/07/31 03:04:05;;;;;;;6.20;1.50;;;16.10;39.60;;;;;;5031100;28;20391;-70
2023/07/31 03:06:31;;;;;;;7.07;1.43;;;16.00;99.90;;;;;;5012444;28;20887;-70
2023/07/31 03:08:56;;;;;;;6.70;1.70;;;16.00;99.90;;;;;;5030212;28;20488;-69
2023/07/31 03:11:22;;;;;;;5.80;1.60;;;16.00;99.90;;;;;;5030047;28;20391;-70
2023/07/31 03:13:47;;;;;;;5.40;1.50;;;16.00;99.90;;;;;;5029668;28;21301;-70
2023/07/31 03:16:13;;;;;;;5.88;1.50;;;16.00;1.00;;;;;;5030109;28;20395;-70
2023/07/31 03:18:38;;;;;;;7.30;1.47;;;16.00;1.00;;;;;;5029432;28;20414;-70
2023/07/31 03:21:04;;;;;;;5.67;1.40;;;15.90;1.00;;;;;;5030095;28;20397;-71
2023/07/31 03:23:30;;;;;;;6.30;1.60;;;15.90;1.00;;;;;;5030214;28;20560;-71
2023/07/31 03:26:00;;;;;;;7.50;2.00;;;15.90;1.00;;;;;;5030251;28;20399;-71
2023/07/31 03:28:26;;;;;;;6.15;1.90;;;15.90;99.90;;;;;;5029898;28;20418;-71
2023/07/31 03:30:53;;;;;;;8.68;1.70;;;16.00;1.00;;;;;;5040638;28;20402;-69
2023/07/31 03:33:19;;;;;;;7.45;1.77;;;16.00;1.00;;;;;;5069325;28;20395;-69
2023/07/31 03:35:45;;;;;;;5.30;1.50;;;15.90;1.00;;;;;;5069150;28;20896;-70
2023/07/31 03:38:10;;;;;;;6.90;1.80;;;15.90;1.00;;;;;;5057642;28;20402;-69
2023/07/31 03:40:36;;;;;;;7.37;1.77;;;16.00;99.90;;;;;;5035558;28;20774;-69
2023/07/31 03:43:01;;;;;;;7.83;1.40;;;15.90;99.90;;;;;;5048727;28;20389;-69
2023/07/31 03:45:27;;;;;;;5.90;1.40;;;15.90;1.00;;;;;;5050020;28;20385;-69
2023/07/31 03:47:54;;;;;;;5.43;1.53;;;15.90;1.00;;;;;;5042657;28;20429;-69
2023/07/31 03:50:20;;;;;;;5.18;1.40;;;15.80;1.00;;;;;;5030185;28;20449;-69
2023/07/31 03:52:45;;;;;;;6.70;1.60;;;15.80;1.00;;;;;;5039466;28;20493;-70
2023/07/31 03:55:11;;;;;;;7.40;1.80;;;15.80;1.00;;;;;;5034854;28;20382;-69
2023/07/31 03:57:36;;;;;;;5.80;1.50;;;15.80;1.00;;;;;;5049088;28;20416;-70
2023/07/31 04:00:02;;;;;;;6.87;1.90;;;15.70;1.00;;;;;;5049173;28;20734;-70
2023/07/31 04:02:28;;;;;;;6.13;1.60;;;15.70;1.00;;;;;;5049997;28;20921;-70
2023/07/31 04:04:53;;;;;;;8.50;2.20;;;15.80;1.00;;;;;;5049240;28;20751;-69
2023/07/31 04:07:18;;;;;;;6.87;1.50;;;15.70;1.00;;;;;;5049114;28;20389;-69
2023/07/31 04:09:44;;;;;;;7.07;1.90;;;15.70;1.00;;;;;;5048616;28;20464;-70
2023/07/31 04:12:10;;;;;;;6.30;1.70;;;15.90;1.00;;;;;;5047949;28;20429;-70
2023/07/31 04:14:35;;;;;;;5.28;1.63;;;16.00;99.90;;;;;;5048798;28;20773;-69
2023/07/31 04:17:01;;;;;;;6.18;1.63;;;16.10;99.90;;;;;;5030263;28;20397;-69
2023/07/31 04:19:26;;;;;;;6.00;1.50;;;16.20;99.90;;;;;;5049314;28;20425;-70
2023/07/31 04:21:52;;;;;;;7.90;1.73;;;16.30;1.00;;;;;;5048803;28;20866;-70
2023/07/31 04:24:24;;;;;;;6.00;1.40;;;16.30;1.00;;;;;;5059271;28;20385;-70
2023/07/31 04:26:50;;;;;;;7.43;1.87;;;16.40;1.00;;;;;;5048017;28;20409;-70
2023/07/31 04:29:16;;;;;;;8.80;2.30;;;16.60;1.00;;;;;;5041164;28;20477;-70
2023/07/31 04:31:41;;;;;;;7.40;1.60;;;16.50;99.90;;;;;;5041198;28;20480;-70
2023/07/31 04:34:07;;;;;;;8.85;2.00;;;16.60;99.90;;;;;;5062587;28;20415;-70
2023/07/31 04:36:33;;;;;;;5.13;1.23;;;16.70;99.90;;;;;;5035624;28;20421;-70
2023/07/31 04:38:59;;;;;;;6.00;1.60;;;16.90;1.00;;;;;;5035936;28;20456;-70
2023/07/31 04:41:24;;;;;;;8.00;1.70;;;17.00;1.00;;;;;;5029981;28;20510;-70
2023/07/31 04:43:50;;;;;;;5.63;1.33;;;17.10;99.90;;;;;;5012011;28;20410;-70
2023/07/31 04:46:15;;;;;;;5.80;1.50;;;17.30;1.00;;;;;;5035473;28;20437;-70
2023/07/31 04:48:41;;;;;;;5.13;1.40;;;17.40;99.90;;;;;;5034304;28;20485;-70
2023/07/31 04:51:06;;;;;;;5.50;1.30;;;17.50;99.90;;;;;;5041455;28;20510;-70
2023/07/31 04:53:32;;;;;;;6.85;1.98;;;17.50;99.90;;;;;;5035114;28;20410;-70
2023/07/31 04:55:58;;;;;;;5.22;1.40;;;17.50;1.00;;;;;;5033005;28;20418;-70
2023/07/31 04:58:23;;;;;;;5.50;1.50;;;17.60;1.00;;;;;;5031349;28;20509;-70
2023/07/31 05:00:49;;;;;;;5.70;1.60;;;17.50;1.00;;;;;;5035610;28;20397;-70
2023/07/31 05:03:14;;;;;;;6.07;1.60;;;17.40;16.80;;;;;;5034379;28;20907;-70
2023/07/31 05:05:40;;;;;;;6.27;1.93;;;17.40;99.90;;;;;;5029303;28;20391;-70
2023/07/31 05:08:05;;;;;;;6.00;1.30;;;17.40;1.00;;;;;;5028936;28;20493;-70
2023/07/31 05:10:31;;;;;;;5.43;1.73;;;17.40;1.00;;;;;;5028927;28;20407;-69
2023/07/31 05:12:56;;;;;;;6.50;1.60;;;17.40;1.00;;;;;;5029579;28;20397;-70
2023/07/31 05:15:22;;;;;;;6.53;1.90;;;17.40;1.00;;;;;;5039017;28;20706;-70
2023/07/31 05:17:48;;;;;;;5.27;1.60;;;17.40;99.90;;;;;;5048678;28;20385;-70
2023/07/31 05:20:14;;;;;;;5.50;1.70;;;17.40;1.00;;;;;;5048347;28;20409;-70
2023/07/31 05:22:40;;;;;;;7.90;1.60;;;17.50;1.00;;;;;;5050473;28;20939;-70
2023/07/31 05:25:06;;;;;;;7.03;1.83;;;17.70;99.90;;;;;;5066535;28;20475;-70
2023/07/31 05:27:32;;;;;;;10.38;1.80;;;18.10;1.00;;;;;;5066739;28;20922;-70
2023/07/31 05:29:58;;;;;;;5.70;1.52;;;18.60;1.00;;;;;;5067312;28;20442;-70
2023/07/31 05:32:23;;;;;;;7.10;2.00;;;19.30;99.90;;;;;;5049570;28;20403;-70
2023/07/31 05:34:52;;;;;;;5.40;1.23;;;19.70;87.00;;;;;;5066819;28;20815;-70
2023/07/31 05:37:17;;;;;;;5.90;1.40;;;20.40;1.00;;;;;;5058677;28;20378;-70
2023/07/31 05:39:43;;;;;;;6.30;1.30;;;21.00;1.00;;;;;;5046429;28;20819;-70
2023/07/31 05:42:09;;;;;;;9.13;1.90;;;20.80;1.00;;;;;;5049036;28;20385;-70
2023/07/31 05:44:34;;;;;;;5.65;1.10;;;20.80;1.00;;;;;;5051067;28;20456;-70
2023/07/31 05:47:00;;;;;;;6.40;1.20;;;20.50;1.00;;;;;;5051165;28;20420;-70
2023/07/31 05:49:25;;;;;;;5.53;1.35;;;19.90;1.00;;;;;;5031860;28;20453;-71
2023/07/31 05:51:51;;;;;;;5.90;1.30;;;19.80;1.00;;;;;;5031271;28;20474;-70
2023/07/31 05:54:16;;;;;;;5.80;1.40;;;19.40;1.00;;;;;;5031934;28;20402;-70
2023/07/31 05:56:42;;;;;;;6.30;1.50;;;19.10;1.00;;;;;;5031374;28;20895;-70
2023/07/31 05:59:09;;;;;;;6.00;1.40;;;18.90;1.00;;;;;;5031294;28;20831;-70
2023/07/31 06:01:35;;;;;;;6.57;1.50;;;18.70;1.00;;;;;;5031209;28;20446;-70
2023/07/31 06:04:02;;;;;;;6.00;1.50;;;18.70;3.60;;;;;;5047580;28;20469;-70
2023/07/31 06:06:28;;;;;;;6.05;1.60;;;18.70;99.00;;;;;;5038609;28;20903;-70
2023/07/31 06:08:53;;;;;;;6.20;1.70;;;18.90;55.40;;;;;;5037026;28;20526;-70
2023/07/31 06:11:20;;;;;;;6.37;1.40;;;19.20;10.90;;;;;;5011861;28;20746;-70
2023/07/31 06:13:47;;;;;;;6.10;1.60;;;19.30;4.10;;;;;;5017490;28;20876;-70
2023/07/31 06:16:13;;;;;;;6.60;1.50;;;19.50;1.00;;;;;;5031041;28;20430;-70
2023/07/31 06:18:39;;;;;;;5.75;1.23;;;19.90;1.00;;;;;;5030837;28;20534;-70
2023/07/31 06:21:05;;;;;;;7.20;1.40;;;20.80;1.00;;;;;;5030709;28;20553;-70
2023/07/31 06:23:30;;;;;;;6.68;1.60;;;21.90;1.00;;;;;;5014600;28;20807;-70
2023/07/31 06:25:56;;;;;;;5.70;1.30;;;22.50;1.00;;;;;;5011368;28;20479;-70
2023/07/31 06:28:26;;;;;;;7.70;1.30;;;22.50;1.00;;;;;;5017889;28;20473;-70
2023/07/31 06:30:52;;;;;;;6.25;1.30;;;23.20;1.00;;;;;;5031101;28;20452;-70
2023/07/31 06:33:17;;;;;;;5.77;1.50;;;23.00;1.00;;;;;;5030871;28;20463;-70
2023/07/31 06:35:43;;;;;;;5.30;1.40;;;23.00;1.00;;;;;;5030889;28;20915;-70
2023/07/31 06:38:09;;;;;;;5.50;1.30;;;23.30;99.90;;;;;;5031323;28;20807;-70
2023/07/31 06:40:34;;;;;;;6.07;1.50;;;22.50;99.90;;;;;;5015371;28;20389;-70
2023/07/31 06:43:06;;;;;;;9.57;1.50;;;21.80;99.90;;;;;;5011075;28;20483;-71
2023/07/31 06:45:31;;;;;;;6.70;1.40;;;21.30;99.90;;;;;;5019404;28;20395;-70
2023/07/31 06:48:01;;;;;;;5.50;1.30;;;20.80;99.90;;;;;;5023727;28;20478;-71
2023/07/31 06:50:27;;;;;;;6.78;1.60;;;21.20;1.00;;;;;;5011371;28;20992;-71
2023/07/31 06:52:52;;;;;;;7.20;1.40;;;22.40;99.90;;;;;;4993687;28;20491;-70
2023/07/31 06:55:24;;;;;;;6.50;1.40;;;23.30;99.90;;;;;;5011186;28;20392;-70
2023/07/31 06:57:53;;;;;;;6.73;1.33;;;24.00;99.90;;;;;;5011258;28;20397;-70
2023/07/31 07:00:20;;;;;;;6.93;1.20;;;24.70;99.90;;;;;;5010822;28;20431;-70
2023/07/31 07:02:49;;;;;;;7.43;1.55;;;24.30;99.90;;;;;;5011973;28;20400;-71
2023/07/31 07:05:18;;;;;;;6.47;1.40;;;23.40;99.90;;;;;;5010506;28;20853;-70
2023/07/31 07:07:44;;;;;;;5.78;1.30;;;22.60;99.90;;;;;;5011102;28;20905;-71
2023/07/31 07:10:10;;;;;;;6.00;1.50;;;22.10;99.90;;;;;;5011111;28;20471;-70
2023/07/31 07:12:35;;;;;;;8.25;1.35;;;22.20;99.90;;;;;;5010592;28;20404;-71
2023/07/31 07:15:02;;;;;;;5.72;1.27;;;22.20;99.90;;;;;;5029616;28;20387;-71
2023/07/31 07:17:31;;;;;;;5.63;1.50;;;22.10;99.90;;;;;;5029828;28;20403;-70
2023/07/31 07:19:57;;;;;;;6.60;1.55;;;22.20;99.90;;;;;;5017761;28;20454;-71
2023/07/31 07:22:22;;;;;;;7.67;1.47;;;22.30;99.90;;;;;;5009777;28;20400;-71
2023/07/31 07:24:48;;;;;;;6.78;1.52;;;22.20;99.90;;;;;;5009676;28;20404;-70
2023/07/31 07:27:14;;;;;;;6.20;1.70;;;22.30;99.90;;;;;;5009788;28;20400;-70
2023/07/31 07:29:40;;;;;;;6.45;1.27;;;22.10;99.90;;;;;;5009557;28;20545;-70
2023/07/31 07:32:06;;;;;;;6.22;1.60;;;21.80;99.90;;;;;;5009877;28;20392;-70
2023/07/31 07:34:31;;;;;;;7.60;1.50;;;21.70;99.90;;;;;;5009213;28;20441;-71
2023/07/31 07:36:57;;;;;;;7.25;1.27;;;22.10;99.90;;;;;;5009526;28;20392;-71
2023/07/31 07:39:22;;;;;;;6.10;1.33;;;22.70;99.90;;;;;;5009632;28;20399;-70
2023/07/31 07:41:48;;;;;;;6.10;1.40;;;23.00;99.90;;;;;;5009112;28;20404;-71
2023/07/31 07:44:14;;;;;;;6.73;1.40;;;23.10;99.90;;;;;;5008874;28;20396;-71
2023/07/31 07:46:41;;;;;;;6.72;1.48;;;23.10;99.90;;;;;;5009010;28;21034;-71
2023/07/31 07:52:01;;;;;;;7.03;1.25;;;24.00;99.90;;;;;;5013408;23;22724;-69
2023/07/31 07:54:27;;;;;;;5.88;1.40;;;24.90;99.90;;;;;;5000729;28;20433;-70
2023/07/31 07:56:52;;;;;;;7.22;2.30;;;25.40;99.90;;;;;;4990836;28;20456;-69
2023/07/31 07:59:18;;;;;;;5.20;1.20;;;25.40;99.90;;;;;;4989920;28;20394;-70
2023/07/31 08:01:43;;;;;;;6.73;1.60;;;25.50;99.90;;;;;;4990838;28;20398;-70
2023/07/31 08:04:09;;;;;;;5.60;1.17;;;25.90;99.90;;;;;;4989849;28;20494;-70
2023/07/31 08:06:34;;;;;;;5.70;1.40;;;26.80;99.90;;;;;;4999123;28;20468;-70
2023/07/31 08:09:05;;;;;;;5.72;1.30;;;26.60;99.90;;;;;;5012026;28;20894;-70
2023/07/31 08:11:30;;;;;;;5.50;1.30;;;26.30;99.90;;;;;;5013223;28;20408;-70
2023/07/31 08:13:56;;;;;;;6.93;1.20;;;26.80;99.90;;;;;;5004641;28;20385;-69
2023/07/31 08:16:21;;;;;;;7.07;1.30;;;26.60;99.90;;;;;;5009244;28;20467;-70
2023/07/31 08:18:48;;;;;;;5.87;1.20;;;26.40;99.90;;;;;;5011110;28;20384;-70
2023/07/31 08:21:14;;;;;;;5.53;1.23;;;26.50;99.90;;;;;;5010005;28;20401;-70
2023/07/31 08:23:42;;;;;;;7.60;1.50;;;26.50;99.90;;;;;;5000548;28;20409;-70
2023/07/31 08:26:07;;;;;;;5.95;1.40;;;26.70;99.90;;;;;;4980085;28;20859;-70
2023/07/31 08:28:36;;;;;;;9.07;1.70;;;26.60;99.90;;;;;;5012144;28;20429;-69
2023/07/31 08:31:01;;;;;;;6.07;1.60;;;25.40;99.90;;;;;;5013596;28;20396;-69
2023/07/31 08:33:27;;;;;;;5.47;1.20;;;24.80;99.90;;;;;;5013322;28;20396;-69
2023/07/31 08:35:52;;;;;;;5.83;1.30;;;24.70;99.90;;;;;;5012409;28;20408;-70
2023/07/31 08:38:18;;;;;;;6.70;1.67;;;24.60;99.90;;;;;;5011426;28;20779;-69
2023/07/31 08:40:43;;;;;;;6.70;1.57;;;24.50;99.90;;;;;;4999738;28;20414;-69
2023/07/31 08:43:09;;;;;;;8.45;1.75;;;24.20;99.90;;;;;;4973366;28;20399;-69
2023/07/31 08:45:35;;;;;;;5.97;1.35;;;24.00;99.90;;;;;;5006768;28;20405;-69
2023/07/31 08:48:01;;;;;;;6.90;1.90;;;23.90;99.90;;;;;;5011011;28;20412;-70
2023/07/31 08:50:27;;;;;;;6.60;1.10;;;24.00;99.90;;;;;;5009363;28;20428;-70
2023/07/31 08:52:53;;;;;;;6.07;1.33;;;23.70;99.90;;;;;;5018800;28;20411;-70
2023/07/31 08:55:24;;;;;;;7.60;1.67;;;23.80;99.90;;;;;;5029358;28;20520;-70
2023/07/31 08:57:52;;;;;;;6.82;1.30;;;23.60;99.90;;;;;;5029174;28;20858;-69
2023/07/31 09:00:20;;;;;;;7.43;1.40;;;23.20;99.90;;;;;;5028269;28;20405;-69
2023/07/31 09:02:59;;;;;;;7.95;1.58;;;23.20;99.90;;;;;;5015637;28;20436;-70
2023/07/31 09:05:27;;;;;;;5.50;1.20;;;23.50;99.90;;;;;;5017798;28;20442;-70
2023/07/31 09:07:55;;;;;;;6.15;1.50;;;23.60;99.90;;;;;;5019821;28;20418;-70
2023/07/31 09:10:20;;;;;;;7.45;1.55;;;23.40;99.90;;;;;;5025288;28;20547;-70
2023/07/31 09:12:47;;;;;;;8.00;1.70;;;23.10;99.90;;;;;;5028923;28;20905;-70
2023/07/31 09:15:12;;;;;;;6.25;1.30;;;23.30;99.90;;;;;;5027979;28;20406;-70
2023/07/31 09:17:38;;;;;;;5.63;1.40;;;23.30;99.90;;;;;;5030905;28;20391;-70
2023/07/31 09:20:15;;;;;;;7.37;1.27;;;23.30;99.90;;;;;;5029211;28;20498;-70
2023/07/31 09:22:56;;;;;;;8.05;1.60;;;23.50;99.90;;;;;;5032476;28;20385;-70
2023/07/31 09:25:23;;;;;;;6.50;1.42;;;24.60;99.90;;;;;;5049718;28;20462;-70
2023/07/31 09:27:59;;;;;;;7.17;1.60;;;25.60;99.90;;;;;;5043439;28;20387;-70
2023/07/31 09:30:24;;;;;;;5.13;1.20;;;26.90;99.90;;;;;;5043146;28;20438;-70
2023/07/31 09:32:51;;;;;;;7.65;1.33;;;27.30;99.90;;;;;;5030166;28;20414;-70
2023/07/31 09:35:32;;;;;;;5.68;1.33;;;27.20;99.90;;;;;;5029515;28;20801;-70
2023/07/31 09:38:00;;;;;;;11.60;1.90;;;26.40;99.90;;;;;;5030854;28;20406;-70
2023/07/31 09:40:30;;;;;;;6.55;1.60;;;25.80;99.90;;;;;;5031992;28;20399;-70
2023/07/31 09:43:01;;;;;;;6.93;1.60;;;25.30;99.90;;;;;;5030232;28;20419;-70
2023/07/31 09:45:26;;;;;;;5.60;1.40;;;24.80;99.90;;;;;;5028931;28;20407;-70
2023/07/31 09:47:52;;;;;;;6.40;1.40;;;24.50;99.90;;;;;;5030263;28;20730;-70
2023/07/31 09:50:20;;;;;;;8.23;1.90;;;24.00;99.90;;;;;;5028820;28;20503;-70
2023/07/31 09:52:46;;;;;;;6.15;1.35;;;23.70;99.90;;;;;;5030070;28;20419;-70
2023/07/31 09:55:12;;;;;;;8.35;1.90;;;23.50;99.90;;;;;;5026600;28;20411;-70
2023/07/31 09:57:58;;;;;;;7.30;1.40;;;24.60;99.90;;;;;;5030987;28;20457;-70
2023/07/31 10:00:26;;;;;;;6.93;1.45;;;25.30;99.90;;;;;;5030576;28;20387;-71
2023/07/31 10:02:52;;;;;;;5.87;1.60;;;26.10;99.90;;;;;;5026647;28;20406;-70
2023/07/31 10:05:20;;;;;;;8.30;1.73;;;25.60;99.90;;;;;;5029200;28;20805;-70
2023/07/31 10:07:57;;;;;;;7.23;1.67;;;25.80;99.90;;;;;;5031644;28;20411;-70
2023/07/31 10:10:22;;;;;;;6.70;1.27;;;25.90;99.90;;;;;;5029082;28;20841;-70
2023/07/31 10:12:49;;;;;;;7.05;1.42;;;26.60;99.90;;;;;;5031641;28;20388;-71
2023/07/31 10:15:16;;;;;;;5.80;1.50;;;26.70;99.90;;;;;;5026384;28;20448;-71
2023/07/31 10:17:42;;;;;;;6.07;1.27;;;27.10;99.90;;;;;;5025513;28;20459;-71
2023/07/31 10:20:08;;;;;;;6.72;1.60;;;26.10;99.90;;;;;;5023675;28;20866;-70
2023/07/31 10:22:34;;;;;;;7.43;2.20;;;26.80;99.90;;;;;;5015947;28;20392;-70
2023/07/31 10:25:00;;;;;;;7.80;2.20;;;27.60;99.90;;;;;;5030511;28;20395;-71
2023/07/31 10:27:27;;;;;;;6.50;1.67;;;27.80;99.90;;;;;;5014236;28;20885;-68
2023/07/31 10:29:54;;;;;;;5.50;1.40;;;27.20;99.90;;;;;;5011784;28;21198;-69
2023/07/31 10:32:21;;;;;;;6.90;1.60;;;26.50;99.90;;;;;;5012390;28;20890;-69
2023/07/31 10:34:48;;;;;;;6.20;1.67;;;26.00;99.90;;;;;;5011798;28;20443;-70
2023/07/31 10:37:28;;;;;;;7.47;1.80;;;26.30;99.90;;;;;;5018567;28;20397;-70
2023/07/31 10:40:16;;;;;;;6.55;1.52;;;26.40;99.90;;;;;;5011363;28;20957;-70
2023/07/31 10:42:50;;;;;;;7.80;1.60;;;26.50;99.90;;;;;;5012758;28;20393;-70
2023/07/31 10:45:47;;;;;;;8.45;1.80;;;26.80;99.90;;;;;;5016993;28;20402;-70
2023/07/31 10:48:14;;;;;;;8.10;1.90;;;26.00;99.90;;;;;;5031856;28;20402;-70
2023/07/31 10:50:58;;;;;;;6.15;1.60;;;25.30;99.90;;;;;;5029966;28;20459;-70
2023/07/31 10:53:29;;;;;;;6.22;1.55;;;25.60;99.90;;;;;;5031701;28;20414;-70
2023/07/31 10:56:03;;;;;;;7.72;1.52;;;25.70;99.90;;;;;;5025937;28;20404;-70
2023/07/31 10:58:28;;;;;;;5.90;1.30;;;25.90;99.90;;;;;;4994137;28;20411;-70
2023/07/31 11:00:59;;;;;;;6.13;1.73;;;25.90;99.90;;;;;;5022126;28;20391;-69
2023/07/31 11:03:42;;;;;;;6.18;1.40;;;25.80;99.90;;;;;;5030912;28;20387;-69
2023/07/31 11:06:08;;;;;;;7.57;1.60;;;25.60;99.90;;;;;;5030566;28;20399;-70
2023/07/31 11:08:35;;;;;;;6.57;1.50;;;26.00;99.90;;;;;;5019269;28;20404;-69
2023/07/31 11:11:05;;;;;;;6.60;1.50;;;26.80;99.90;;;;;;5029493;28;20399;-70
2023/07/31 11:13:32;;;;;;;6.65;1.75;;;26.80;99.90;;;;;;5013958;28;20400;-70
2023/07/31 11:15:58;;;;;;;6.88;1.60;;;27.30;99.90;;;;;;5010736;28;20868;-70
2023/07/31 11:18:25;;;;;;;8.48;1.70;;;27.30;99.90;;;;;;5011317;28;20430;-70
2023/07/31 11:20:51;;;;;;;7.10;1.60;;;27.30;99.90;;;;;;5017037;28;20905;-70
2023/07/31 11:23:17;;;;;;;6.70;1.70;;;27.10;99.90;;;;;;5030562;28;20430;-70
2023/07/31 11:25:43;;;;;;;8.02;1.70;;;27.00;99.90;;;;;;5030492;28;20399;-70
2023/07/31 11:28:14;;;;;;;7.68;2.05;;;26.90;99.90;;;;;;5029910;28;20399;-70
2023/07/31 11:30:40;;;;;;;7.57;1.40;;;26.80;99.90;;;;;;5030432;28;20415;-70
2023/07/31 11:33:07;;;;;;;6.70;1.98;;;26.90;99.90;;;;;;5030507;28;20402;-70
2023/07/31 11:35:41;;;;;;;8.83;1.97;;;26.90;99.90;;;;;;5013535;28;20377;-70
2023/07/31 11:38:08;;;;;;;8.10;1.65;;;26.00;99.90;;;;;;5015440;28;20481;-70
2023/07/31 11:40:42;;;;;;;8.27;1.80;;;25.70;99.90;;;;;;5028978;28;20387;-70
2023/07/31 11:43:07;;;;;;;6.80;1.88;;;25.40;99.90;;;;;;5030152;28;20418;-70
2023/07/31 11:45:35;;;;;;;6.80;2.13;;;25.60;99.90;;;;;;5029527;28;20417;-69
2023/07/31 11:48:01;;;;;;;8.32;2.40;;;25.10;99.90;;;;;;5024862;28;20414;-69
2023/07/31 11:50:26;;;;;;;8.50;2.72;;;25.10;99.90;;;;;;5010109;28;20428;-70
2023/07/31 11:53:01;;;;;;;6.97;1.85;;;25.20;99.90;;;;;;5029369;28;20411;-69
2023/07/31 11:55:27;;;;;;;6.93;1.77;;;25.00;99.90;;;;;;5020258;28;20393;-70
2023/07/31 11:57:57;;;;;;;14.10;1.92;;;25.20;99.90;;;;;;5014263;28;20405;-70
2023/07/31 12:00:23;;;;;;;8.30;1.80;;;25.20;99.90;;;;;;5020246;28;20422;-70
2023/07/31 12:02:49;;;;;;;7.55;1.90;;;25.80;99.90;;;;;;5028513;28;20763;-70
2023/07/31 12:05:15;;;;;;;7.60;1.63;;;26.20;99.90;;;;;;5029136;28;20841;-70
2023/07/31 12:07:50;;;;;;;6.70;1.88;;;25.60;99.90;;;;;;5028719;28;20423;-70
2023/07/31 12:10:28;;;;;;;8.95;2.40;;;25.30;99.90;;;;;;5028479;28;20541;-70
2023/07/31 12:13:01;;;;;;;7.63;1.95;;;25.40;99.90;;;;;;5026903;28;20879;-70
2023/07/31 12:15:34;;;;;;;7.32;1.52;;;25.70;99.90;;;;;;5009416;28;20447;-70
2023/07/31 12:18:00;;;;;;;7.80;1.90;;;25.00;99.90;;;;;;5009574;28;20381;-69
2023/07/31 12:20:26;;;;;;;6.00;1.67;;;24.90;99.90;;;;;;5008640;28;20454;-70
2023/07/31 12:22:51;;;;;;;6.78;2.00;;;24.80;99.90;;;;;;5009276;28;20380;-70
2023/07/31 12:25:17;;;;;;;7.80;1.80;;;24.80;99.90;;;;;;5008849;28;20499;-70
2023/07/31 12:27:45;;;;;;;6.82;1.50;;;25.00;99.90;;;;;;5008526;28;20468;-70
2023/07/31 12:30:34;;;;;;;6.63;1.70;;;25.00;99.90;;;;;;5008798;28;20463;-70
2023/07/31 12:33:07;;;;;;;6.80;1.40;;;25.40;99.90;;;;;;5008980;28;20403;-70
2023/07/31 12:35:38;;;;;;;8.63;1.70;;;25.70;99.90;;;;;;5009147;28;20538;-69
2023/07/31 12:38:03;;;;;;;6.22;1.60;;;25.80;99.90;;;;;;5009211;28;20423;-70
2023/07/31 12:40:29;;;;;;;7.78;2.10;;;25.90;99.90;;;;;;5010062;28;20917;-70
2023/07/31 12:42:54;;;;;;;6.27;1.63;;;25.80;99.90;;;;;;5017032;28;20396;-70
2023/07/31 12:45:21;;;;;;;6.60;1.48;;;25.50;99.90;;;;;;5033751;28;20428;-70
2023/07/31 12:47:47;;;;;;;7.03;1.90;;;25.30;99.90;;;;;;5014907;28;20393;-69
2023/07/31 12:50:12;;;;;;;6.47;1.77;;;25.30;99.90;;;;;;5009687;28;20731;-70
2023/07/31 12:52:38;;;;;;;6.32;1.80;;;25.30;99.90;;;;;;5008396;28;20429;-70